sensor_id;sensor_type;location;lat;lon;timestamp;P1;durP1;ratioP1;P2;durP2;ratioP2
15748;SDS011;7976;52.526;13.326;2022-11-02T00:01:21;14.13;;;6.07;;
15748;SDS011;7976;52.526;13.326;2022-11-02T00:03:51;11.30;;;5.28;;
15748;SDS011;7976;52.526;13.326;2022-11-02T00:06:18;16.02;;;5.82;;
15748;SDS011;7976;52.526;13.326;2022-11-02T00:08:45;12.75;;;5.10;;
15748;SDS011;7976;52.526;13.326;2022-11-02T00:11:12;13.25;;;5.35;;
15748;SDS011;7976;52.526;13.326;2022-11-02T00:13:40;14.68;;;5.70;;
15748;SDS011;7976;52.526;13.326;2022-11-02T00:16:07;20.85;;;6.07;;
15748;SDS011;7976;52.526;13.326;2022-11-02T00:18:38;14.05;;;5.72;;
15748;SDS011;7976;52.526;13.326;2022-11-02T00:21:07;13.80;;;5.68;;
15748;SDS011;7976;52.526;13.326;2022-11-02T00:23:35;12.48;;;5.38;;
15748;SDS011;7976;52.526;13.326;2022-11-02T00:26:02;12.38;;;5.03;;
15748;SDS011;7976;52.526;13.326;2022-11-02T00:28:30;11.73;;;5.18;;
15748;SDS011;7976;52.526;13.326;2022-11-02T00:30:58;12.93;;;5.80;;
15748;SDS011;7976;52.526;13.326;2022-11-02T00:33:25;13.63;;;5.50;;
15748;SDS011;7976;52.526;13.326;2022-11-02T00:35:52;11.57;;;4.82;;
15748;SDS011;7976;52.526;13.326;2022-11-02T00:38:19;12.00;;;5.00;;
15748;SDS011;7976;52.526;13.326;2022-11-02T00:40:46;13.00;;;5.00;;
15748;SDS011;7976;52.526;13.326;2022-11-02T00:43:13;15.52;;;5.32;;
15748;SDS011;7976;52.526;13.326;2022-11-02T00:45:40;11.32;;;4.80;;
15748;SDS011;7976;52.526;13.326;2022-11-02T00:48:09;11.80;;;4.85;;
15748;SDS011;7976;52.526;13.326;2022-11-02T00:50:37;11.88;;;5.15;;
15748;SDS011;7976;52.526;13.326;2022-11-02T00:53:04;10.80;;;5.05;;
15748;SDS011;7976;52.526;13.326;2022-11-02T00:55:31;11.32;;;5.28;;
15748;SDS011;7976;52.526;13.326;2022-11-02T00:58:01;13.30;;;4.97;;
15748;SDS011;7976;52.526;13.326;2022-11-02T01:00:28;13.07;;;4.90;;
15748;SDS011;7976;52.526;13.326;2022-11-02T01:02:57;11.48;;;4.63;;
15748;SDS011;7976;52.526;13.326;2022-11-02T01:05:26;12.15;;;5.07;;
15748;SDS011;7976;52.526;13.326;2022-11-02T01:07:54;12.88;;;5.07;;
15748;SDS011;7976;52.526;13.326;2022-11-02T01:10:21;11.65;;;4.68;;
15748;SDS011;7976;52.526;13.326;2022-11-02T01:12:50;14.43;;;4.68;;
15748;SDS011;7976;52.526;13.326;2022-11-02T01:15:16;11.27;;;4.35;;
15748;SDS011;7976;52.526;13.326;2022-11-02T01:17:43;11.52;;;4.50;;
15748;SDS011;7976;52.526;13.326;2022-11-02T01:20:10;9.65;;;4.43;;
15748;SDS011;7976;52.526;13.326;2022-11-02T01:22:38;11.05;;;4.45;;
15748;SDS011;7976;52.526;13.326;2022-11-02T01:25:05;11.60;;;4.43;;
15748;SDS011;7976;52.526;13.326;2022-11-02T01:27:33;11.65;;;4.50;;
15748;SDS011;7976;52.526;13.326;2022-11-02T01:30:00;10.23;;;4.07;;
15748;SDS011;7976;52.526;13.326;2022-11-02T01:32:27;9.65;;;4.00;;
15748;SDS011;7976;52.526;13.326;2022-11-02T01:34:54;10.93;;;4.32;;
15748;SDS011;7976;52.526;13.326;2022-11-02T01:37:21;12.65;;;3.65;;
15748;SDS011;7976;52.526;13.326;2022-11-02T01:39:49;14.20;;;4.30;;
15748;SDS011;7976;52.526;13.326;2022-11-02T01:42:18;9.43;;;3.50;;
15748;SDS011;7976;52.526;13.326;2022-11-02T01:44:47;10.48;;;3.90;;
15748;SDS011;7976;52.526;13.326;2022-11-02T01:47:16;10.38;;;4.00;;
15748;SDS011;7976;52.526;13.326;2022-11-02T01:49:50;10.05;;;3.90;;
15748;SDS011;7976;52.526;13.326;2022-11-02T01:52:23;11.35;;;3.63;;
15748;SDS011;7976;52.526;13.326;2022-11-02T01:54:58;10.60;;;3.70;;
15748;SDS011;7976;52.526;13.326;2022-11-02T01:57:31;11.93;;;3.83;;
15748;SDS011;7976;52.526;13.326;2022-11-02T02:00:03;9.20;;;3.50;;
15748;SDS011;7976;52.526;13.326;2022-11-02T02:02:41;11.10;;;3.28;;
15748;SDS011;7976;52.526;13.326;2022-11-02T02:05:14;8.88;;;3.38;;
15748;SDS011;7976;52.526;13.326;2022-11-02T02:07:42;9.38;;;3.10;;
15748;SDS011;7976;52.526;13.326;2022-11-02T02:10:11;9.38;;;2.92;;
15748;SDS011;7976;52.526;13.326;2022-11-02T02:12:39;10.68;;;3.33;;
15748;SDS011;7976;52.526;13.326;2022-11-02T02:15:08;12.32;;;3.42;;
15748;SDS011;7976;52.526;13.326;2022-11-02T02:17:40;10.30;;;2.95;;
15748;SDS011;7976;52.526;13.326;2022-11-02T02:20:19;9.90;;;3.33;;
15748;SDS011;7976;52.526;13.326;2022-11-02T02:23:18;11.25;;;3.20;;
15748;SDS011;7976;52.526;13.326;2022-11-02T02:29:17;9.27;;;3.35;;
15748;SDS011;7976;52.526;13.326;2022-11-02T02:31:51;8.68;;;3.00;;
15748;SDS011;7976;52.526;13.326;2022-11-02T02:34:25;7.55;;;2.88;;
15748;SDS011;7976;52.526;13.326;2022-11-02T02:37:03;9.48;;;2.80;;
15748;SDS011;7976;52.526;13.326;2022-11-02T02:39:39;14.05;;;3.33;;
15748;SDS011;7976;52.526;13.326;2022-11-02T02:42:13;8.65;;;3.08;;
15748;SDS011;7976;52.526;13.326;2022-11-02T02:44:53;10.05;;;2.92;;
15748;SDS011;7976;52.526;13.326;2022-11-02T02:47:31;8.02;;;2.72;;
15748;SDS011;7976;52.526;13.326;2022-11-02T02:50:04;10.13;;;3.10;;
15748;SDS011;7976;52.526;13.326;2022-11-02T02:52:39;10.00;;;2.53;;
15748;SDS011;7976;52.526;13.326;2022-11-02T02:55:11;8.73;;;2.65;;
15748;SDS011;7976;52.526;13.326;2022-11-02T02:57:45;8.18;;;2.95;;
15748;SDS011;7976;52.526;13.326;2022-11-02T03:00:16;8.60;;;2.67;;
15748;SDS011;7976;52.526;13.326;2022-11-02T03:02:46;11.77;;;3.00;;
15748;SDS011;7976;52.526;13.326;2022-11-02T03:05:26;9.98;;;2.70;;
15748;SDS011;7976;52.526;13.326;2022-11-02T03:08:00;10.73;;;2.95;;
15748;SDS011;7976;52.526;13.326;2022-11-02T03:10:36;11.23;;;3.00;;
15748;SDS011;7976;52.526;13.326;2022-11-02T03:13:17;11.35;;;3.22;;
15748;SDS011;7976;52.526;13.326;2022-11-02T03:16:03;12.13;;;3.88;;
15748;SDS011;7976;52.526;13.326;2022-11-02T03:18:42;8.75;;;2.60;;
15748;SDS011;7976;52.526;13.326;2022-11-02T03:21:20;7.00;;;2.33;;
15748;SDS011;7976;52.526;13.326;2022-11-02T03:23:54;16.45;;;6.35;;
15748;SDS011;7976;52.526;13.326;2022-11-02T03:26:30;10.48;;;2.67;;
15748;SDS011;7976;52.526;13.326;2022-11-02T03:29:08;9.02;;;2.70;;
15748;SDS011;7976;52.526;13.326;2022-11-02T03:31:44;7.55;;;2.38;;
15748;SDS011;7976;52.526;13.326;2022-11-02T03:34:21;8.05;;;2.53;;
15748;SDS011;7976;52.526;13.326;2022-11-02T03:36:58;7.97;;;2.40;;
15748;SDS011;7976;52.526;13.326;2022-11-02T03:39:33;7.78;;;2.50;;
15748;SDS011;7976;52.526;13.326;2022-11-02T03:42:09;7.40;;;2.47;;
15748;SDS011;7976;52.526;13.326;2022-11-02T03:44:45;8.00;;;2.35;;
15748;SDS011;7976;52.526;13.326;2022-11-02T03:47:20;9.68;;;2.38;;
15748;SDS011;7976;52.526;13.326;2022-11-02T03:49:50;10.15;;;2.33;;
15748;SDS011;7976;52.526;13.326;2022-11-02T03:52:21;6.85;;;2.40;;
15748;SDS011;7976;52.526;13.326;2022-11-02T03:54:57;8.35;;;2.20;;
15748;SDS011;7976;52.526;13.326;2022-11-02T03:57:34;6.75;;;2.20;;
15748;SDS011;7976;52.526;13.326;2022-11-02T04:00:08;8.50;;;2.13;;
15748;SDS011;7976;52.526;13.326;2022-11-02T04:02:46;8.02;;;2.15;;
15748;SDS011;7976;52.526;13.326;2022-11-02T04:05:17;7.95;;;1.98;;
15748;SDS011;7976;52.526;13.326;2022-11-02T04:07:47;10.07;;;2.20;;
15748;SDS011;7976;52.526;13.326;2022-11-02T04:10:35;7.45;;;2.13;;
15748;SDS011;7976;52.526;13.326;2022-11-02T04:13:25;8.88;;;2.15;;
15748;SDS011;7976;52.526;13.326;2022-11-02T04:16:09;14.45;;;2.38;;
15748;SDS011;7976;52.526;13.326;2022-11-02T04:18:38;9.48;;;3.05;;
15748;SDS011;7976;52.526;13.326;2022-11-02T04:21:26;9.18;;;2.60;;
15748;SDS011;7976;52.526;13.326;2022-11-02T04:23:53;11.98;;;2.63;;
15748;SDS011;7976;52.526;13.326;2022-11-02T04:26:39;9.75;;;2.20;;
15748;SDS011;7976;52.526;13.326;2022-11-02T04:29:06;8.43;;;2.35;;
15748;SDS011;7976;52.526;13.326;2022-11-02T04:31:38;11.20;;;2.60;;
15748;SDS011;7976;52.526;13.326;2022-11-02T04:34:08;9.45;;;2.50;;
15748;SDS011;7976;52.526;13.326;2022-11-02T04:36:34;7.88;;;2.60;;
15748;SDS011;7976;52.526;13.326;2022-11-02T04:39:01;12.73;;;2.45;;
15748;SDS011;7976;52.526;13.326;2022-11-02T04:41:30;7.13;;;2.30;;
15748;SDS011;7976;52.526;13.326;2022-11-02T04:44:14;9.43;;;2.83;;
15748;SDS011;7976;52.526;13.326;2022-11-02T04:46:47;10.50;;;2.60;;
15748;SDS011;7976;52.526;13.326;2022-11-02T04:49:31;12.52;;;2.92;;
15748;SDS011;7976;52.526;13.326;2022-11-02T04:51:58;11.13;;;2.20;;
15748;SDS011;7976;52.526;13.326;2022-11-02T04:54:29;9.30;;;2.40;;
15748;SDS011;7976;52.526;13.326;2022-11-02T04:57:02;10.82;;;2.67;;
15748;SDS011;7976;52.526;13.326;2022-11-02T04:59:31;8.18;;;2.50;;
15748;SDS011;7976;52.526;13.326;2022-11-02T05:02:03;12.48;;;2.65;;
15748;SDS011;7976;52.526;13.326;2022-11-02T05:04:41;8.50;;;2.45;;
15748;SDS011;7976;52.526;13.326;2022-11-02T05:07:08;8.60;;;2.20;;
15748;SDS011;7976;52.526;13.326;2022-11-02T05:09:37;14.93;;;2.92;;
15748;SDS011;7976;52.526;13.326;2022-11-02T05:12:07;9.88;;;2.40;;
15748;SDS011;7976;52.526;13.326;2022-11-02T05:14:34;12.38;;;2.38;;
15748;SDS011;7976;52.526;13.326;2022-11-02T05:17:02;9.93;;;2.40;;
15748;SDS011;7976;52.526;13.326;2022-11-02T05:19:33;10.10;;;2.38;;
15748;SDS011;7976;52.526;13.326;2022-11-02T05:22:03;10.45;;;2.80;;
15748;SDS011;7976;52.526;13.326;2022-11-02T05:24:30;10.55;;;2.60;;
15748;SDS011;7976;52.526;13.326;2022-11-02T05:26:57;10.20;;;2.42;;
15748;SDS011;7976;52.526;13.326;2022-11-02T05:29:28;10.85;;;2.42;;
15748;SDS011;7976;52.526;13.326;2022-11-02T05:31:56;9.18;;;2.28;;
15748;SDS011;7976;52.526;13.326;2022-11-02T05:34:23;10.27;;;2.30;;
15748;SDS011;7976;52.526;13.326;2022-11-02T05:36:51;11.43;;;2.20;;
15748;SDS011;7976;52.526;13.326;2022-11-02T05:39:20;11.38;;;2.70;;
15748;SDS011;7976;52.526;13.326;2022-11-02T05:41:47;9.85;;;2.42;;
15748;SDS011;7976;52.526;13.326;2022-11-02T05:44:14;11.10;;;2.70;;
15748;SDS011;7976;52.526;13.326;2022-11-02T05:46:42;12.93;;;2.55;;
15748;SDS011;7976;52.526;13.326;2022-11-02T05:49:10;12.45;;;3.17;;
15748;SDS011;7976;52.526;13.326;2022-11-02T05:51:39;12.80;;;2.97;;
15748;SDS011;7976;52.526;13.326;2022-11-02T05:54:08;10.27;;;2.30;;
15748;SDS011;7976;52.526;13.326;2022-11-02T05:56:36;16.20;;;2.28;;
15748;SDS011;7976;52.526;13.326;2022-11-02T05:59:03;9.77;;;2.58;;
15748;SDS011;7976;52.526;13.326;2022-11-02T06:01:30;9.68;;;2.25;;
15748;SDS011;7976;52.526;13.326;2022-11-02T06:03:57;10.13;;;2.22;;
15748;SDS011;7976;52.526;13.326;2022-11-02T06:06:26;9.82;;;2.40;;
15748;SDS011;7976;52.526;13.326;2022-11-02T06:08:53;10.77;;;2.20;;
15748;SDS011;7976;52.526;13.326;2022-11-02T06:11:20;9.45;;;2.47;;
15748;SDS011;7976;52.526;13.326;2022-11-02T06:13:49;8.82;;;2.53;;
15748;SDS011;7976;52.526;13.326;2022-11-02T06:16:16;10.75;;;2.30;;
15748;SDS011;7976;52.526;13.326;2022-11-02T06:18:44;11.70;;;2.42;;
15748;SDS011;7976;52.526;13.326;2022-11-02T06:21:10;9.43;;;2.22;;
15748;SDS011;7976;52.526;13.326;2022-11-02T06:23:38;10.73;;;2.53;;
15748;SDS011;7976;52.526;13.326;2022-11-02T06:26:08;16.23;;;2.65;;
15748;SDS011;7976;52.526;13.326;2022-11-02T06:28:36;15.02;;;3.00;;
15748;SDS011;7976;52.526;13.326;2022-11-02T06:31:04;10.95;;;2.97;;
15748;SDS011;7976;52.526;13.326;2022-11-02T06:33:31;10.48;;;2.92;;
15748;SDS011;7976;52.526;13.326;2022-11-02T06:35:58;10.75;;;2.10;;
15748;SDS011;7976;52.526;13.326;2022-11-02T06:38:25;10.48;;;2.15;;
15748;SDS011;7976;52.526;13.326;2022-11-02T06:40:52;10.60;;;3.15;;
15748;SDS011;7976;52.526;13.326;2022-11-02T06:43:20;10.88;;;2.28;;
15748;SDS011;7976;52.526;13.326;2022-11-02T06:45:47;12.88;;;2.67;;
15748;SDS011;7976;52.526;13.326;2022-11-02T06:48:15;15.80;;;2.92;;
15748;SDS011;7976;52.526;13.326;2022-11-02T06:50:42;10.07;;;2.15;;
15748;SDS011;7976;52.526;13.326;2022-11-02T06:53:09;9.18;;;2.15;;
15748;SDS011;7976;52.526;13.326;2022-11-02T06:55:36;11.55;;;2.78;;
15748;SDS011;7976;52.526;13.326;2022-11-02T06:58:03;10.43;;;2.05;;
15748;SDS011;7976;52.526;13.326;2022-11-02T07:00:30;9.70;;;2.45;;
15748;SDS011;7976;52.526;13.326;2022-11-02T07:03:00;9.57;;;2.22;;
15748;SDS011;7976;52.526;13.326;2022-11-02T07:05:30;9.88;;;2.83;;
15748;SDS011;7976;52.526;13.326;2022-11-02T07:07:58;14.05;;;2.97;;
15748;SDS011;7976;52.526;13.326;2022-11-02T07:10:25;10.32;;;2.50;;
15748;SDS011;7976;52.526;13.326;2022-11-02T07:12:54;12.07;;;2.05;;
15748;SDS011;7976;52.526;13.326;2022-11-02T07:15:23;7.85;;;2.20;;
15748;SDS011;7976;52.526;13.326;2022-11-02T07:17:51;9.77;;;2.42;;
15748;SDS011;7976;52.526;13.326;2022-11-02T07:20:19;13.07;;;2.80;;
15748;SDS011;7976;52.526;13.326;2022-11-02T07:22:54;8.50;;;2.17;;
15748;SDS011;7976;52.526;13.326;2022-11-02T07:25:23;9.80;;;1.92;;
15748;SDS011;7976;52.526;13.326;2022-11-02T07:27:52;9.55;;;2.00;;
15748;SDS011;7976;52.526;13.326;2022-11-02T07:30:19;7.72;;;2.40;;
15748;SDS011;7976;52.526;13.326;2022-11-02T07:32:46;10.38;;;2.45;;
15748;SDS011;7976;52.526;13.326;2022-11-02T07:35:14;9.07;;;2.17;;
15748;SDS011;7976;52.526;13.326;2022-11-02T07:37:41;10.63;;;2.50;;
15748;SDS011;7976;52.526;13.326;2022-11-02T07:40:11;8.82;;;2.15;;
15748;SDS011;7976;52.526;13.326;2022-11-02T07:42:42;8.80;;;2.00;;
15748;SDS011;7976;52.526;13.326;2022-11-02T07:45:10;11.05;;;2.30;;
15748;SDS011;7976;52.526;13.326;2022-11-02T07:47:41;12.43;;;2.90;;
15748;SDS011;7976;52.526;13.326;2022-11-02T07:50:09;11.23;;;2.72;;
15748;SDS011;7976;52.526;13.326;2022-11-02T07:52:42;11.75;;;2.97;;
15748;SDS011;7976;52.526;13.326;2022-11-02T07:55:12;10.02;;;2.70;;
15748;SDS011;7976;52.526;13.326;2022-11-02T07:57:40;12.02;;;2.47;;
15748;SDS011;7976;52.526;13.326;2022-11-02T08:00:08;9.02;;;2.38;;
15748;SDS011;7976;52.526;13.326;2022-11-02T08:02:39;10.23;;;2.22;;
15748;SDS011;7976;52.526;13.326;2022-11-02T08:05:06;8.90;;;2.30;;
15748;SDS011;7976;52.526;13.326;2022-11-02T08:07:34;11.13;;;2.50;;
15748;SDS011;7976;52.526;13.326;2022-11-02T08:10:00;10.38;;;2.28;;
15748;SDS011;7976;52.526;13.326;2022-11-02T08:12:29;12.50;;;3.15;;
15748;SDS011;7976;52.526;13.326;2022-11-02T08:14:55;7.88;;;1.98;;
15748;SDS011;7976;52.526;13.326;2022-11-02T08:17:23;10.68;;;2.20;;
15748;SDS011;7976;52.526;13.326;2022-11-02T08:19:49;7.47;;;2.10;;
15748;SDS011;7976;52.526;13.326;2022-11-02T08:22:16;9.50;;;2.40;;
15748;SDS011;7976;52.526;13.326;2022-11-02T08:24:43;9.23;;;1.95;;
15748;SDS011;7976;52.526;13.326;2022-11-02T08:27:10;9.60;;;2.30;;
15748;SDS011;7976;52.526;13.326;2022-11-02T08:29:38;10.73;;;2.63;;
15748;SDS011;7976;52.526;13.326;2022-11-02T08:32:04;9.45;;;1.90;;
15748;SDS011;7976;52.526;13.326;2022-11-02T08:34:31;10.30;;;2.47;;
15748;SDS011;7976;52.526;13.326;2022-11-02T08:36:58;12.27;;;2.30;;
15748;SDS011;7976;52.526;13.326;2022-11-02T08:39:25;9.57;;;2.20;;
15748;SDS011;7976;52.526;13.326;2022-11-02T08:41:51;11.65;;;3.13;;
15748;SDS011;7976;52.526;13.326;2022-11-02T08:44:18;10.48;;;2.20;;
15748;SDS011;7976;52.526;13.326;2022-11-02T08:46:46;10.52;;;2.20;;
15748;SDS011;7976;52.526;13.326;2022-11-02T08:49:13;11.32;;;2.33;;
15748;SDS011;7976;52.526;13.326;2022-11-02T08:51:42;13.00;;;2.47;;
15748;SDS011;7976;52.526;13.326;2022-11-02T08:54:09;13.70;;;3.03;;
15748;SDS011;7976;52.526;13.326;2022-11-02T08:56:36;9.48;;;2.25;;
15748;SDS011;7976;52.526;13.326;2022-11-02T08:59:03;11.75;;;2.38;;
15748;SDS011;7976;52.526;13.326;2022-11-02T09:01:30;9.15;;;2.97;;
15748;SDS011;7976;52.526;13.326;2022-11-02T09:03:59;11.38;;;3.33;;
15748;SDS011;7976;52.526;13.326;2022-11-02T09:06:25;12.40;;;3.17;;
15748;SDS011;7976;52.526;13.326;2022-11-02T09:08:53;10.65;;;2.75;;
15748;SDS011;7976;52.526;13.326;2022-11-02T09:11:20;8.25;;;2.20;;
15748;SDS011;7976;52.526;13.326;2022-11-02T09:13:47;9.77;;;2.30;;
15748;SDS011;7976;52.526;13.326;2022-11-02T09:16:13;12.13;;;2.53;;
15748;SDS011;7976;52.526;13.326;2022-11-02T09:18:40;12.93;;;2.55;;
15748;SDS011;7976;52.526;13.326;2022-11-02T09:21:08;11.43;;;2.28;;
15748;SDS011;7976;52.526;13.326;2022-11-02T09:23:35;12.60;;;2.40;;
15748;SDS011;7976;52.526;13.326;2022-11-02T09:26:02;12.00;;;2.53;;
15748;SDS011;7976;52.526;13.326;2022-11-02T09:28:29;11.98;;;2.40;;
15748;SDS011;7976;52.526;13.326;2022-11-02T09:30:56;12.07;;;2.67;;
15748;SDS011;7976;52.526;13.326;2022-11-02T09:33:22;10.52;;;2.40;;
15748;SDS011;7976;52.526;13.326;2022-11-02T09:35:49;11.90;;;2.65;;
15748;SDS011;7976;52.526;13.326;2022-11-02T09:38:17;13.95;;;2.38;;
15748;SDS011;7976;52.526;13.326;2022-11-02T09:40:45;7.32;;;2.05;;
15748;SDS011;7976;52.526;13.326;2022-11-02T09:43:27;7.13;;;1.67;;
15748;SDS011;7976;52.526;13.326;2022-11-02T09:46:08;10.25;;;2.00;;
15748;SDS011;7976;52.526;13.326;2022-11-02T09:48:44;9.55;;;2.00;;
15748;SDS011;7976;52.526;13.326;2022-11-02T09:51:16;12.18;;;2.67;;
15748;SDS011;7976;52.526;13.326;2022-11-02T09:53:53;12.63;;;2.75;;
15748;SDS011;7976;52.526;13.326;2022-11-02T09:56:30;10.80;;;2.30;;
15748;SDS011;7976;52.526;13.326;2022-11-02T09:59:00;12.13;;;2.05;;
15748;SDS011;7976;52.526;13.326;2022-11-02T10:01:37;8.82;;;2.08;;
15748;SDS011;7976;52.526;13.326;2022-11-02T10:04:30;11.95;;;1.95;;
15748;SDS011;7976;52.526;13.326;2022-11-02T10:07:22;10.88;;;2.10;;
15748;SDS011;7976;52.526;13.326;2022-11-02T10:10:11;9.98;;;2.60;;
15748;SDS011;7976;52.526;13.326;2022-11-02T10:12:45;11.20;;;2.42;;
15748;SDS011;7976;52.526;13.326;2022-11-02T10:15:29;10.57;;;2.05;;
15748;SDS011;7976;52.526;13.326;2022-11-02T10:18:03;10.25;;;2.47;;
15748;SDS011;7976;52.526;13.326;2022-11-02T10:20:38;13.57;;;3.03;;
15748;SDS011;7976;52.526;13.326;2022-11-02T10:23:11;12.95;;;3.22;;
15748;SDS011;7976;52.526;13.326;2022-11-02T10:25:49;11.80;;;3.03;;
15748;SDS011;7976;52.526;13.326;2022-11-02T10:28:18;12.50;;;3.20;;
15748;SDS011;7976;52.526;13.326;2022-11-02T10:30:51;13.38;;;3.58;;
15748;SDS011;7976;52.526;13.326;2022-11-02T10:33:19;16.23;;;3.15;;
15748;SDS011;7976;52.526;13.326;2022-11-02T10:35:52;11.70;;;2.40;;
15748;SDS011;7976;52.526;13.326;2022-11-02T10:38:43;13.05;;;2.50;;
15748;SDS011;7976;52.526;13.326;2022-11-02T10:44:34;11.52;;;2.38;;
15748;SDS011;7976;52.526;13.326;2022-11-02T10:47:23;14.27;;;2.40;;
15748;SDS011;7976;52.526;13.326;2022-11-02T10:49:59;11.45;;;2.22;;
15748;SDS011;7976;52.526;13.326;2022-11-02T10:52:58;14.82;;;2.88;;
15748;SDS011;7976;52.526;13.326;2022-11-02T10:55:28;14.20;;;2.35;;
15748;SDS011;7976;52.526;13.326;2022-11-02T10:58:08;11.48;;;2.70;;
15748;SDS011;7976;52.526;13.326;2022-11-02T11:00:44;12.07;;;2.20;;
15748;SDS011;7976;52.526;13.326;2022-11-02T11:03:13;10.77;;;2.10;;
15748;SDS011;7976;52.526;13.326;2022-11-02T11:05:50;10.48;;;2.17;;
15748;SDS011;7976;52.526;13.326;2022-11-02T11:08:28;11.40;;;2.40;;
15748;SDS011;7976;52.526;13.326;2022-11-02T11:11:09;11.32;;;2.60;;
15748;SDS011;7976;52.526;13.326;2022-11-02T11:13:41;12.32;;;2.20;;
15748;SDS011;7976;52.526;13.326;2022-11-02T11:16:12;11.98;;;1.92;;
15748;SDS011;7976;52.526;13.326;2022-11-02T11:18:39;10.65;;;2.20;;
15748;SDS011;7976;52.526;13.326;2022-11-02T11:21:06;12.20;;;2.03;;
15748;SDS011;7976;52.526;13.326;2022-11-02T11:23:34;13.00;;;2.25;;
15748;SDS011;7976;52.526;13.326;2022-11-02T11:26:01;9.35;;;2.10;;
15748;SDS011;7976;52.526;13.326;2022-11-02T11:28:31;10.95;;;2.30;;
15748;SDS011;7976;52.526;13.326;2022-11-02T11:31:10;7.18;;;1.80;;
15748;SDS011;7976;52.526;13.326;2022-11-02T11:33:42;9.95;;;2.20;;
15748;SDS011;7976;52.526;13.326;2022-11-02T11:36:19;9.40;;;1.95;;
15748;SDS011;7976;52.526;13.326;2022-11-02T11:38:54;10.48;;;2.15;;
15748;SDS011;7976;52.526;13.326;2022-11-02T11:41:25;8.73;;;2.22;;
15748;SDS011;7976;52.526;13.326;2022-11-02T11:43:54;10.30;;;2.22;;
15748;SDS011;7976;52.526;13.326;2022-11-02T11:46:22;9.57;;;1.95;;
15748;SDS011;7976;52.526;13.326;2022-11-02T11:49:04;13.13;;;2.22;;
15748;SDS011;7976;52.526;13.326;2022-11-02T11:51:46;10.43;;;2.00;;
15748;SDS011;7976;52.526;13.326;2022-11-02T11:54:17;9.20;;;1.83;;
15748;SDS011;7976;52.526;13.326;2022-11-02T11:56:51;12.48;;;2.25;;
15748;SDS011;7976;52.526;13.326;2022-11-02T11:59:21;9.63;;;1.90;;
15748;SDS011;7976;52.526;13.326;2022-11-02T12:01:57;7.47;;;1.75;;
15748;SDS011;7976;52.526;13.326;2022-11-02T12:04:27;9.80;;;2.08;;
15748;SDS011;7976;52.526;13.326;2022-11-02T12:07:00;9.48;;;2.17;;
15748;SDS011;7976;52.526;13.326;2022-11-02T12:09:53;8.65;;;2.08;;
15748;SDS011;7976;52.526;13.326;2022-11-02T12:12:36;14.43;;;2.22;;
15748;SDS011;7976;52.526;13.326;2022-11-02T12:15:24;11.98;;;2.35;;
15748;SDS011;7976;52.526;13.326;2022-11-02T12:21:24;7.43;;;1.80;;
15748;SDS011;7976;52.526;13.326;2022-11-02T12:27:30;9.27;;;2.20;;
15748;SDS011;7976;52.526;13.326;2022-11-02T12:30:14;9.95;;;2.00;;
15748;SDS011;7976;52.526;13.326;2022-11-02T12:32:47;15.23;;;2.28;;
15748;SDS011;7976;52.526;13.326;2022-11-02T12:38:44;11.85;;;2.30;;
15748;SDS011;7976;52.526;13.326;2022-11-02T12:41:29;7.63;;;2.08;;
15748;SDS011;7976;52.526;13.326;2022-11-02T12:44:15;8.00;;;2.10;;
15748;SDS011;7976;52.526;13.326;2022-11-02T12:47:05;9.27;;;2.05;;
15748;SDS011;7976;52.526;13.326;2022-11-02T12:49:48;8.13;;;1.63;;
15748;SDS011;7976;52.526;13.326;2022-11-02T12:52:32;8.77;;;2.00;;
15748;SDS011;7976;52.526;13.326;2022-11-02T12:55:19;7.28;;;2.20;;
15748;SDS011;7976;52.526;13.326;2022-11-02T12:57:57;10.98;;;1.98;;
15748;SDS011;7976;52.526;13.326;2022-11-02T13:00:30;7.97;;;2.13;;
15748;SDS011;7976;52.526;13.326;2022-11-02T13:03:04;12.05;;;3.22;;
15748;SDS011;7976;52.526;13.326;2022-11-02T13:05:49;10.32;;;1.90;;
15748;SDS011;7976;52.526;13.326;2022-11-02T13:08:30;6.75;;;1.88;;
15748;SDS011;7976;52.526;13.326;2022-11-02T13:11:04;13.32;;;1.85;;
15748;SDS011;7976;52.526;13.326;2022-11-02T13:13:40;9.13;;;2.30;;
15748;SDS011;7976;52.526;13.326;2022-11-02T13:16:13;9.63;;;2.00;;
15748;SDS011;7976;52.526;13.326;2022-11-02T13:18:43;9.20;;;1.80;;
15748;SDS011;7976;52.526;13.326;2022-11-02T13:21:16;8.68;;;2.10;;
15748;SDS011;7976;52.526;13.326;2022-11-02T13:23:55;13.88;;;2.30;;
15748;SDS011;7976;52.526;13.326;2022-11-02T13:26:26;7.82;;;2.05;;
15748;SDS011;7976;52.526;13.326;2022-11-02T13:29:02;8.95;;;2.05;;
15748;SDS011;7976;52.526;13.326;2022-11-02T13:31:38;8.73;;;1.88;;
15748;SDS011;7976;52.526;13.326;2022-11-02T13:34:11;10.63;;;2.20;;
15748;SDS011;7976;52.526;13.326;2022-11-02T13:36:47;11.10;;;2.22;;
15748;SDS011;7976;52.526;13.326;2022-11-02T13:39:16;9.98;;;2.40;;
15748;SDS011;7976;52.526;13.326;2022-11-02T13:42:18;7.38;;;1.80;;
15748;SDS011;7976;52.526;13.326;2022-11-02T13:45:23;8.18;;;2.72;;
15748;SDS011;7976;52.526;13.326;2022-11-02T13:51:22;8.50;;;1.60;;
15748;SDS011;7976;52.526;13.326;2022-11-02T13:53:58;11.18;;;3.35;;
15748;SDS011;7976;52.526;13.326;2022-11-02T13:56:34;10.05;;;2.70;;
15748;SDS011;7976;52.526;13.326;2022-11-02T13:59:03;9.60;;;2.13;;
15748;SDS011;7976;52.526;13.326;2022-11-02T14:01:33;6.18;;;2.00;;
15748;SDS011;7976;52.526;13.326;2022-11-02T14:04:06;12.27;;;2.60;;
15748;SDS011;7976;52.526;13.326;2022-11-02T14:06:43;9.32;;;2.33;;
15748;SDS011;7976;52.526;13.326;2022-11-02T14:09:20;8.75;;;1.90;;
15748;SDS011;7976;52.526;13.326;2022-11-02T14:18:27;10.65;;;1.98;;
15748;SDS011;7976;52.526;13.326;2022-11-02T14:20:55;10.77;;;2.22;;
15748;SDS011;7976;52.526;13.326;2022-11-02T14:23:30;9.52;;;1.90;;
15748;SDS011;7976;52.526;13.326;2022-11-02T14:32:18;10.60;;;2.58;;
15748;SDS011;7976;52.526;13.326;2022-11-02T14:35:06;11.80;;;3.42;;
15748;SDS011;7976;52.526;13.326;2022-11-02T14:37:50;8.95;;;2.70;;
15748;SDS011;7976;52.526;13.326;2022-11-02T14:40:55;13.00;;;2.92;;
15748;SDS011;7976;52.526;13.326;2022-11-02T14:43:56;10.85;;;2.58;;
15748;SDS011;7976;52.526;13.326;2022-11-02T14:46:45;9.88;;;2.00;;
15748;SDS011;7976;52.526;13.326;2022-11-02T14:49:23;12.20;;;2.25;;
15748;SDS011;7976;52.526;13.326;2022-11-02T14:51:55;8.10;;;2.30;;
15748;SDS011;7976;52.526;13.326;2022-11-02T14:54:27;10.73;;;2.50;;
15748;SDS011;7976;52.526;13.326;2022-11-02T14:56:59;10.82;;;2.78;;
15748;SDS011;7976;52.526;13.326;2022-11-02T14:59:32;8.52;;;2.40;;
15748;SDS011;7976;52.526;13.326;2022-11-02T15:02:08;11.63;;;2.00;;
15748;SDS011;7976;52.526;13.326;2022-11-02T15:04:46;9.38;;;2.03;;
15748;SDS011;7976;52.526;13.326;2022-11-02T15:07:17;13.07;;;4.80;;
15748;SDS011;7976;52.526;13.326;2022-11-02T15:09:52;11.80;;;2.28;;
15748;SDS011;7976;52.526;13.326;2022-11-02T15:12:26;9.35;;;2.30;;
15748;SDS011;7976;52.526;13.326;2022-11-02T15:14:58;9.50;;;2.67;;
15748;SDS011;7976;52.526;13.326;2022-11-02T15:17:57;9.00;;;2.42;;
15748;SDS011;7976;52.526;13.326;2022-11-02T15:20:41;7.22;;;1.52;;
15748;SDS011;7976;52.526;13.326;2022-11-02T15:23:12;9.77;;;2.28;;
15748;SDS011;7976;52.526;13.326;2022-11-02T15:25:48;9.88;;;2.35;;
15748;SDS011;7976;52.526;13.326;2022-11-02T15:28:19;8.90;;;2.33;;
15748;SDS011;7976;52.526;13.326;2022-11-02T15:30:49;10.85;;;1.90;;
15748;SDS011;7976;52.526;13.326;2022-11-02T15:33:21;11.10;;;2.88;;
15748;SDS011;7976;52.526;13.326;2022-11-02T15:36:01;13.65;;;2.30;;
15748;SDS011;7976;52.526;13.326;2022-11-02T15:38:32;12.60;;;4.07;;
15748;SDS011;7976;52.526;13.326;2022-11-02T15:41:03;9.55;;;2.60;;
15748;SDS011;7976;52.526;13.326;2022-11-02T15:43:56;13.55;;;4.43;;
15748;SDS011;7976;52.526;13.326;2022-11-02T15:46:45;8.65;;;2.22;;